Sartell, MN (56377)

11:17 PM CDT on April 24, 2015 (GMT -0500)
Bridgeport | | Change Station
CLOSE
Current Station
Personal Weather Station
Location: Sartell, MN
Elevation: 1037 ft
Nearby Weather Stations

Elev 1037 ft 45.60 °N, 94.20 °W | Updated 16 seconds ago

Overcast
Overcast
44.0 °F
Feels Like 42 °F
N
4.0
Wind Variable Wind from East
Gusts 9.0 mph

Today
High -- | Low -- °F
--% Chance of Precip.
Yesterday
High -- | Low -- °F
Precip. -- in
6:16 AM 8:14 PM
Waxing Crescent, 42% visible
Pressure 29.85 in
Visibility 10.0 miles
Clouds Overcast 2000 ft
Windchill 42 °F
Dew Point 32 °F
Humidity 61%
Rainfall 0.36 in
Snow Depth Not available.
UV 0 out of 12
Pollen 8.80 out of 12
Air Quality Not available.
Flu Activity Local Activity
METAR KSTC 250353Z 11008KT 10SM OVC020 07/03 A2981 RMK AO2 SLP108 T00670033

More Conditions Fewer Conditions

Pressure 29.85 in
Visibility 10.0 miles
Clouds Overcast 2000 ft
Windchill 42 °F
Dew Point 32 °F
Humidity 61%
Rainfall 0.36 in
Snow Depth Not available.
UV 0 out of 12
Pollen 8.80 out of 12
Air Quality Not available.
Flu Activity Local Activity
METAR KSTC 250353Z 11008KT 10SM OVC020 07/03 A2981 RMK AO2 SLP108 T00670033

More Conditions Fewer Conditions

10-Day Weather Forecast

Almanac

Astronomy

Apr. 24, 2015 Rise Set
Actual Time
Civil Twilight
Nautical Twilight
Astronomical Twilight
Moon
Length of Visible Light
Length of Day
Tomorrow will be .
, % of the Moon is Illuminated

Today's Extremes

State Highs State Lows

Community

WunderPhotos

Upload Photos

1,816,601 photos uploaded!

WunderBlogs® & News

Nearby

Air Quality

  Air Quality AQ Index Pollutant
Not available.

Snow Depth

Station Depth Elevation

Earthquake Activity

City Distance Mag. Time & Date
Minimum magnitude displayed is 2.5.

Coastal Water Temperatures

Place Temperature

Stations

Nearby Weather Stations

Station Location Temp. Windchill Dew Point Humidity Wind Precip. Elev Updated Type